sensor_id;sensor_type;location;lat;lon;timestamp;temperature;humidity
54202;DHT22;40108;53.152;5.844;2022-09-09T00:01:37;13.90;95.90
54202;DHT22;40108;53.152;5.844;2022-09-09T00:07:05;13.90;96.00
54202;DHT22;40108;53.152;5.844;2022-09-09T00:09:46;13.80;96.00
54202;DHT22;40108;53.152;5.844;2022-09-09T00:12:27;13.90;96.10
54202;DHT22;40108;53.152;5.844;2022-09-09T00:15:18;13.90;96.20
54202;DHT22;40108;53.152;5.844;2022-09-09T00:20:50;13.80;96.20
54202;DHT22;40108;53.152;5.844;2022-09-09T00:23:25;13.80;96.20
54202;DHT22;40108;53.152;5.844;2022-09-09T00:28:51;13.80;96.30
54202;DHT22;40108;53.152;5.844;2022-09-09T00:31:26;13.80;96.30
54202;DHT22;40108;53.152;5.844;2022-09-09T00:33:53;13.80;96.40
54202;DHT22;40108;53.152;5.844;2022-09-09T00:36:23;13.80;96.40
54202;DHT22;40108;53.152;5.844;2022-09-09T00:38:59;13.80;96.40
54202;DHT22;40108;53.152;5.844;2022-09-09T00:44:02;13.70;96.40
54202;DHT22;40108;53.152;5.844;2022-09-09T00:49:38;13.70;96.50
54202;DHT22;40108;53.152;5.844;2022-09-09T00:54:54;13.70;96.60
54202;DHT22;40108;53.152;5.844;2022-09-09T00:57:29;13.70;96.60
54202;DHT22;40108;53.152;5.844;2022-09-09T01:08:01;13.60;96.60
54202;DHT22;40108;53.152;5.844;2022-09-09T01:10:39;13.70;96.70
54202;DHT22;40108;53.152;5.844;2022-09-09T01:13:14;13.70;96.80
54202;DHT22;40108;53.152;5.844;2022-09-09T01:15:44;13.80;96.80
54202;DHT22;40108;53.152;5.844;2022-09-09T01:18:14;13.80;96.80
54202;DHT22;40108;53.152;5.844;2022-09-09T01:26:18;14.00;96.90
54202;DHT22;40108;53.152;5.844;2022-09-09T01:28:47;14.10;96.90
54202;DHT22;40108;53.152;5.844;2022-09-09T01:31:23;14.10;96.90
54202;DHT22;40108;53.152;5.844;2022-09-09T01:33:51;14.10;96.90
54202;DHT22;40108;53.152;5.844;2022-09-09T01:36:29;14.10;96.80
54202;DHT22;40108;53.152;5.844;2022-09-09T01:38:57;14.10;96.80
54202;DHT22;40108;53.152;5.844;2022-09-09T01:41:23;14.20;96.80
54202;DHT22;40108;53.152;5.844;2022-09-09T01:43:49;14.20;96.70
54202;DHT22;40108;53.152;5.844;2022-09-09T01:46:16;14.20;96.70
54202;DHT22;40108;53.152;5.844;2022-09-09T01:48:43;14.20;96.60
54202;DHT22;40108;53.152;5.844;2022-09-09T01:51:09;14.20;96.60
54202;DHT22;40108;53.152;5.844;2022-09-09T01:53:36;14.10;96.60
54202;DHT22;40108;53.152;5.844;2022-09-09T02:04:40;14.10;96.60
54202;DHT22;40108;53.152;5.844;2022-09-09T02:09:47;14.10;96.60
54202;DHT22;40108;53.152;5.844;2022-09-09T02:12:18;14.10;96.60
54202;DHT22;40108;53.152;5.844;2022-09-09T02:14:52;14.10;96.70
54202;DHT22;40108;53.152;5.844;2022-09-09T02:17:27;14.10;96.70
54202;DHT22;40108;53.152;5.844;2022-09-09T02:20:21;14.10;96.70
54202;DHT22;40108;53.152;5.844;2022-09-09T02:22:50;14.00;96.70
54202;DHT22;40108;53.152;5.844;2022-09-09T02:25:19;14.10;96.70
54202;DHT22;40108;53.152;5.844;2022-09-09T02:27:47;14.00;96.70
54202;DHT22;40108;53.152;5.844;2022-09-09T02:30:16;14.00;96.70
54202;DHT22;40108;53.152;5.844;2022-09-09T02:32:43;14.00;96.70
54202;DHT22;40108;53.152;5.844;2022-09-09T02:35:13;14.10;96.80
54202;DHT22;40108;53.152;5.844;2022-09-09T02:37:42;14.10;96.80
54202;DHT22;40108;53.152;5.844;2022-09-09T02:40:10;14.00;96.80
54202;DHT22;40108;53.152;5.844;2022-09-09T02:42:44;14.00;96.80
54202;DHT22;40108;53.152;5.844;2022-09-09T02:45:14;14.00;96.80
54202;DHT22;40108;53.152;5.844;2022-09-09T02:50:25;14.10;96.90
54202;DHT22;40108;53.152;5.844;2022-09-09T02:53:12;14.10;96.90
54202;DHT22;40108;53.152;5.844;2022-09-09T02:55:58;14.10;97.00
54202;DHT22;40108;53.152;5.844;2022-09-09T02:58:26;14.10;97.00
54202;DHT22;40108;53.152;5.844;2022-09-09T03:00:52;14.10;97.00
54202;DHT22;40108;53.152;5.844;2022-09-09T03:03:19;14.10;97.00
54202;DHT22;40108;53.152;5.844;2022-09-09T03:05:46;14.10;97.00
54202;DHT22;40108;53.152;5.844;2022-09-09T03:08:12;14.10;97.00
54202;DHT22;40108;53.152;5.844;2022-09-09T03:10:38;14.10;97.10
54202;DHT22;40108;53.152;5.844;2022-09-09T03:13:05;14.10;97.00
54202;DHT22;40108;53.152;5.844;2022-09-09T03:15:31;14.00;97.00
54202;DHT22;40108;53.152;5.844;2022-09-09T03:17:58;14.00;97.00
54202;DHT22;40108;53.152;5.844;2022-09-09T03:20:26;14.00;97.00
54202;DHT22;40108;53.152;5.844;2022-09-09T03:22:52;14.00;97.00
54202;DHT22;40108;53.152;5.844;2022-09-09T03:25:19;13.90;97.10
54202;DHT22;40108;53.152;5.844;2022-09-09T03:27:45;13.90;97.10
54202;DHT22;40108;53.152;5.844;2022-09-09T03:30:11;13.90;97.10
54202;DHT22;40108;53.152;5.844;2022-09-09T03:32:36;13.90;97.10
54202;DHT22;40108;53.152;5.844;2022-09-09T03:35:03;13.90;97.10
54202;DHT22;40108;53.152;5.844;2022-09-09T03:37:28;13.90;97.10
54202;DHT22;40108;53.152;5.844;2022-09-09T03:39:54;13.90;97.10
54202;DHT22;40108;53.152;5.844;2022-09-09T03:42:20;13.90;97.10
54202;DHT22;40108;53.152;5.844;2022-09-09T03:44:48;14.00;97.20
54202;DHT22;40108;53.152;5.844;2022-09-09T03:47:21;14.00;97.20
54202;DHT22;40108;53.152;5.844;2022-09-09T03:49:47;14.00;97.20
54202;DHT22;40108;53.152;5.844;2022-09-09T03:52:14;14.00;97.20
54202;DHT22;40108;53.152;5.844;2022-09-09T03:54:40;14.10;97.20
54202;DHT22;40108;53.152;5.844;2022-09-09T03:57:06;14.10;97.10
54202;DHT22;40108;53.152;5.844;2022-09-09T03:59:32;14.10;97.20
54202;DHT22;40108;53.152;5.844;2022-09-09T04:01:58;14.10;97.10
54202;DHT22;40108;53.152;5.844;2022-09-09T04:04:24;14.10;97.10
54202;DHT22;40108;53.152;5.844;2022-09-09T04:06:52;14.10;97.10
54202;DHT22;40108;53.152;5.844;2022-09-09T04:09:18;14.10;97.10
54202;DHT22;40108;53.152;5.844;2022-09-09T04:11:43;14.10;97.00
54202;DHT22;40108;53.152;5.844;2022-09-09T04:14:09;14.20;97.00
54202;DHT22;40108;53.152;5.844;2022-09-09T04:16:35;14.10;97.00
54202;DHT22;40108;53.152;5.844;2022-09-09T04:19:03;14.20;97.00
54202;DHT22;40108;53.152;5.844;2022-09-09T04:21:30;14.20;97.00
54202;DHT22;40108;53.152;5.844;2022-09-09T04:23:56;14.20;97.00
54202;DHT22;40108;53.152;5.844;2022-09-09T04:26:22;14.20;97.00
54202;DHT22;40108;53.152;5.844;2022-09-09T04:28:48;14.20;97.00
54202;DHT22;40108;53.152;5.844;2022-09-09T04:31:19;14.20;97.00
54202;DHT22;40108;53.152;5.844;2022-09-09T04:33:47;14.20;97.00
54202;DHT22;40108;53.152;5.844;2022-09-09T04:36:13;14.20;97.00
54202;DHT22;40108;53.152;5.844;2022-09-09T04:38:38;14.20;97.00
54202;DHT22;40108;53.152;5.844;2022-09-09T04:41:05;14.20;97.00
54202;DHT22;40108;53.152;5.844;2022-09-09T04:43:31;14.20;97.00
54202;DHT22;40108;53.152;5.844;2022-09-09T04:45:57;14.20;97.00
54202;DHT22;40108;53.152;5.844;2022-09-09T04:48:24;14.20;97.00
54202;DHT22;40108;53.152;5.844;2022-09-09T04:51:02;14.30;97.00
54202;DHT22;40108;53.152;5.844;2022-09-09T04:53:29;14.20;97.00
54202;DHT22;40108;53.152;5.844;2022-09-09T04:56:06;14.20;96.90
54202;DHT22;40108;53.152;5.844;2022-09-09T04:58:32;14.30;96.90
54202;DHT22;40108;53.152;5.844;2022-09-09T05:01:09;14.30;96.90
54202;DHT22;40108;53.152;5.844;2022-09-09T05:03:35;14.40;97.00
54202;DHT22;40108;53.152;5.844;2022-09-09T05:06:10;14.30;97.00
54202;DHT22;40108;53.152;5.844;2022-09-09T05:08:40;14.30;97.00
54202;DHT22;40108;53.152;5.844;2022-09-09T05:11:21;14.30;97.00
54202;DHT22;40108;53.152;5.844;2022-09-09T05:13:49;14.30;97.10
54202;DHT22;40108;53.152;5.844;2022-09-09T05:16:16;14.30;97.10
54202;DHT22;40108;53.152;5.844;2022-09-09T05:18:42;14.30;97.10
54202;DHT22;40108;53.152;5.844;2022-09-09T05:21:09;14.30;97.10
54202;DHT22;40108;53.152;5.844;2022-09-09T05:23:36;14.30;97.10
54202;DHT22;40108;53.152;5.844;2022-09-09T05:26:02;14.30;97.10
54202;DHT22;40108;53.152;5.844;2022-09-09T05:28:28;14.40;97.10
54202;DHT22;40108;53.152;5.844;2022-09-09T05:31:00;14.40;97.10
54202;DHT22;40108;53.152;5.844;2022-09-09T05:33:26;14.40;97.10
54202;DHT22;40108;53.152;5.844;2022-09-09T05:36:03;14.40;97.10
54202;DHT22;40108;53.152;5.844;2022-09-09T05:38:30;14.30;97.10
54202;DHT22;40108;53.152;5.844;2022-09-09T05:40:56;14.30;97.10
54202;DHT22;40108;53.152;5.844;2022-09-09T05:43:23;14.30;97.10
54202;DHT22;40108;53.152;5.844;2022-09-09T05:46:02;14.30;97.00
54202;DHT22;40108;53.152;5.844;2022-09-09T05:48:34;14.30;97.00
54202;DHT22;40108;53.152;5.844;2022-09-09T05:51:01;14.30;97.00
54202;DHT22;40108;53.152;5.844;2022-09-09T05:53:28;14.30;97.00
54202;DHT22;40108;53.152;5.844;2022-09-09T05:56:12;14.20;97.00
54202;DHT22;40108;53.152;5.844;2022-09-09T05:58:40;14.30;97.10
54202;DHT22;40108;53.152;5.844;2022-09-09T06:01:06;14.20;97.10
54202;DHT22;40108;53.152;5.844;2022-09-09T06:03:34;14.30;97.00
54202;DHT22;40108;53.152;5.844;2022-09-09T06:06:03;14.30;97.00
54202;DHT22;40108;53.152;5.844;2022-09-09T06:08:31;14.30;97.10
54202;DHT22;40108;53.152;5.844;2022-09-09T06:11:02;14.30;97.00
54202;DHT22;40108;53.152;5.844;2022-09-09T06:13:28;14.40;97.00
54202;DHT22;40108;53.152;5.844;2022-09-09T06:15:54;14.40;97.00
54202;DHT22;40108;53.152;5.844;2022-09-09T06:18:20;14.50;96.90
54202;DHT22;40108;53.152;5.844;2022-09-09T06:21:16;14.50;96.80
54202;DHT22;40108;53.152;5.844;2022-09-09T06:23:43;14.50;96.80
54202;DHT22;40108;53.152;5.844;2022-09-09T06:28:50;14.60;96.70
54202;DHT22;40108;53.152;5.844;2022-09-09T06:31:18;14.50;96.70
54202;DHT22;40108;53.152;5.844;2022-09-09T06:33:51;14.60;96.70
54202;DHT22;40108;53.152;5.844;2022-09-09T06:36:25;14.60;96.70
54202;DHT22;40108;53.152;5.844;2022-09-09T06:38:51;14.50;96.70
54202;DHT22;40108;53.152;5.844;2022-09-09T06:41:19;14.50;96.70
54202;DHT22;40108;53.152;5.844;2022-09-09T06:43:46;14.60;96.70
54202;DHT22;40108;53.152;5.844;2022-09-09T06:48:40;14.50;96.50
54202;DHT22;40108;53.152;5.844;2022-09-09T06:53:37;14.40;96.60
54202;DHT22;40108;53.152;5.844;2022-09-09T06:58:41;14.40;96.60
54202;DHT22;40108;53.152;5.844;2022-09-09T07:01:12;14.50;96.60
54202;DHT22;40108;53.152;5.844;2022-09-09T07:03:39;14.50;96.60
54202;DHT22;40108;53.152;5.844;2022-09-09T07:06:05;14.50;96.60
54202;DHT22;40108;53.152;5.844;2022-09-09T07:08:31;14.50;96.50
54202;DHT22;40108;53.152;5.844;2022-09-09T07:11:07;14.50;96.50
54202;DHT22;40108;53.152;5.844;2022-09-09T07:13:34;14.50;96.40
54202;DHT22;40108;53.152;5.844;2022-09-09T07:16:08;14.60;96.40
54202;DHT22;40108;53.152;5.844;2022-09-09T07:18:34;14.60;96.40
54202;DHT22;40108;53.152;5.844;2022-09-09T07:21:01;14.60;96.40
54202;DHT22;40108;53.152;5.844;2022-09-09T07:23:28;14.60;96.10
54202;DHT22;40108;53.152;5.844;2022-09-09T07:25:54;14.70;96.10
54202;DHT22;40108;53.152;5.844;2022-09-09T07:28:20;14.80;96.10
54202;DHT22;40108;53.152;5.844;2022-09-09T07:30:56;14.90;96.20
54202;DHT22;40108;53.152;5.844;2022-09-09T07:33:22;15.10;95.90
54202;DHT22;40108;53.152;5.844;2022-09-09T07:35:48;15.20;95.70
54202;DHT22;40108;53.152;5.844;2022-09-09T07:38:14;15.30;95.20
54202;DHT22;40108;53.152;5.844;2022-09-09T07:40:40;15.30;94.60
54202;DHT22;40108;53.152;5.844;2022-09-09T07:43:06;15.40;94.60
54202;DHT22;40108;53.152;5.844;2022-09-09T07:45:33;15.50;94.40
54202;DHT22;40108;53.152;5.844;2022-09-09T07:48:00;15.50;94.30
54202;DHT22;40108;53.152;5.844;2022-09-09T07:50:26;15.50;94.40
54202;DHT22;40108;53.152;5.844;2022-09-09T07:52:52;15.60;94.30
54202;DHT22;40108;53.152;5.844;2022-09-09T07:55:20;15.70;94.20
54202;DHT22;40108;53.152;5.844;2022-09-09T07:57:46;15.80;94.00
54202;DHT22;40108;53.152;5.844;2022-09-09T08:00:12;15.90;93.50
54202;DHT22;40108;53.152;5.844;2022-09-09T08:02:40;15.90;93.50
54202;DHT22;40108;53.152;5.844;2022-09-09T08:05:06;16.00;93.60
54202;DHT22;40108;53.152;5.844;2022-09-09T08:07:32;16.10;93.10
54202;DHT22;40108;53.152;5.844;2022-09-09T08:09:57;16.20;92.70
54202;DHT22;40108;53.152;5.844;2022-09-09T08:12:23;16.20;92.40
54202;DHT22;40108;53.152;5.844;2022-09-09T08:14:49;16.20;92.50
54202;DHT22;40108;53.152;5.844;2022-09-09T08:17:15;16.50;92.40
54202;DHT22;40108;53.152;5.844;2022-09-09T08:19:40;16.70;91.20
54202;DHT22;40108;53.152;5.844;2022-09-09T08:22:06;16.70;90.90
54202;DHT22;40108;53.152;5.844;2022-09-09T08:24:33;16.80;91.20
54202;DHT22;40108;53.152;5.844;2022-09-09T08:26:58;16.80;91.40
54202;DHT22;40108;53.152;5.844;2022-09-09T08:29:24;16.80;91.30
54202;DHT22;40108;53.152;5.844;2022-09-09T08:31:55;17.10;91.50
54202;DHT22;40108;53.152;5.844;2022-09-09T08:34:23;17.60;90.20
54202;DHT22;40108;53.152;5.844;2022-09-09T08:36:49;17.50;88.60
54202;DHT22;40108;53.152;5.844;2022-09-09T08:39:18;17.50;89.00
54202;DHT22;40108;53.152;5.844;2022-09-09T08:50:12;18.00;87.50
54202;DHT22;40108;53.152;5.844;2022-09-09T08:55:47;17.60;88.10
54202;DHT22;40108;53.152;5.844;2022-09-09T08:58:19;17.60;88.00
54202;DHT22;40108;53.152;5.844;2022-09-09T09:09:23;18.10;86.50
54202;DHT22;40108;53.152;5.844;2022-09-09T09:11:58;17.90;86.50
54202;DHT22;40108;53.152;5.844;2022-09-09T09:14:30;17.80;86.40
54202;DHT22;40108;53.152;5.844;2022-09-09T09:19:30;17.60;86.80
54202;DHT22;40108;53.152;5.844;2022-09-09T09:25:03;17.50;87.30
54202;DHT22;40108;53.152;5.844;2022-09-09T09:27:35;17.30;87.30
54202;DHT22;40108;53.152;5.844;2022-09-09T09:30:16;17.30;87.40
54202;DHT22;40108;53.152;5.844;2022-09-09T09:35:26;17.20;87.50
54202;DHT22;40108;53.152;5.844;2022-09-09T09:37:52;17.20;87.90
54202;DHT22;40108;53.152;5.844;2022-09-09T09:40:20;17.20;87.90
54202;DHT22;40108;53.152;5.844;2022-09-09T09:42:58;17.20;87.80
54202;DHT22;40108;53.152;5.844;2022-09-09T09:45:44;17.30;88.10
54202;DHT22;40108;53.152;5.844;2022-09-09T09:48:14;17.30;87.90
54202;DHT22;40108;53.152;5.844;2022-09-09T09:50:52;17.40;87.10
54202;DHT22;40108;53.152;5.844;2022-09-09T09:55:57;17.60;86.20
54202;DHT22;40108;53.152;5.844;2022-09-09T09:58:23;17.60;85.50
54202;DHT22;40108;53.152;5.844;2022-09-09T10:00:52;17.60;85.60
54202;DHT22;40108;53.152;5.844;2022-09-09T10:05:54;17.90;85.00
54202;DHT22;40108;53.152;5.844;2022-09-09T10:08:25;17.90;83.80
54202;DHT22;40108;53.152;5.844;2022-09-09T10:19:08;18.40;81.00
54202;DHT22;40108;53.152;5.844;2022-09-09T10:29:52;18.60;79.60
54202;DHT22;40108;53.152;5.844;2022-09-09T10:35:33;18.40;81.20
54202;DHT22;40108;53.152;5.844;2022-09-09T10:40:49;18.50;81.20
54202;DHT22;40108;53.152;5.844;2022-09-09T10:46:16;19.00;79.90
54202;DHT22;40108;53.152;5.844;2022-09-09T10:49:24;19.10;78.30
54202;DHT22;40108;53.152;5.844;2022-09-09T10:52:56;19.60;79.00
54202;DHT22;40108;53.152;5.844;2022-09-09T10:55:11;20.00;76.40
54202;DHT22;40108;53.152;5.844;2022-09-09T10:57:47;20.00;74.80
54202;DHT22;40108;53.152;5.844;2022-09-09T11:00:23;20.10;75.20
54202;DHT22;40108;53.152;5.844;2022-09-09T11:02:56;20.10;75.10
54202;DHT22;40108;53.152;5.844;2022-09-09T11:05:44;19.80;74.80
54202;DHT22;40108;53.152;5.844;2022-09-09T11:08:29;19.50;76.90
54202;DHT22;40108;53.152;5.844;2022-09-09T11:13:35;19.60;76.00
54202;DHT22;40108;53.152;5.844;2022-09-09T11:16:30;19.30;76.70
54202;DHT22;40108;53.152;5.844;2022-09-09T11:19:34;19.20;77.90
54202;DHT22;40108;53.152;5.844;2022-09-09T11:24:52;19.10;78.00
54202;DHT22;40108;53.152;5.844;2022-09-09T11:27:31;19.10;78.60
54202;DHT22;40108;53.152;5.844;2022-09-09T11:38:47;19.20;77.40
54202;DHT22;40108;53.152;5.844;2022-09-09T11:41:18;19.20;77.50
54202;DHT22;40108;53.152;5.844;2022-09-09T11:43:51;19.20;77.20
54202;DHT22;40108;53.152;5.844;2022-09-09T11:46:20;19.40;77.50
54202;DHT22;40108;53.152;5.844;2022-09-09T11:49:06;19.60;75.50
54202;DHT22;40108;53.152;5.844;2022-09-09T11:51:47;19.50;77.30
54202;DHT22;40108;53.152;5.844;2022-09-09T11:54:33;19.40;77.50
54202;DHT22;40108;53.152;5.844;2022-09-09T11:57:36;19.20;77.40
54202;DHT22;40108;53.152;5.844;2022-09-09T12:00:03;19.30;79.20
54202;DHT22;40108;53.152;5.844;2022-09-09T12:02:29;19.50;77.80
54202;DHT22;40108;53.152;5.844;2022-09-09T12:08:03;19.50;77.40
54202;DHT22;40108;53.152;5.844;2022-09-09T12:10:39;19.20;77.80
54202;DHT22;40108;53.152;5.844;2022-09-09T12:13:19;18.90;78.50
54202;DHT22;40108;53.152;5.844;2022-09-09T12:15:51;18.80;79.20
54202;DHT22;40108;53.152;5.844;2022-09-09T12:18:32;18.60;80.00
54202;DHT22;40108;53.152;5.844;2022-09-09T12:28:59;18.90;80.40
54202;DHT22;40108;53.152;5.844;2022-09-09T12:36:55;18.90;79.40
54202;DHT22;40108;53.152;5.844;2022-09-09T12:39:33;18.90;79.90
54202;DHT22;40108;53.152;5.844;2022-09-09T12:41:59;18.80;79.40
54202;DHT22;40108;53.152;5.844;2022-09-09T12:44:26;18.70;80.20
54202;DHT22;40108;53.152;5.844;2022-09-09T12:46:56;18.80;81.70
54202;DHT22;40108;53.152;5.844;2022-09-09T12:49:36;19.10;82.10
54202;DHT22;40108;53.152;5.844;2022-09-09T12:52:08;19.30;81.50
54202;DHT22;40108;53.152;5.844;2022-09-09T12:54:36;19.50;79.00
54202;DHT22;40108;53.152;5.844;2022-09-09T12:57:03;19.50;78.60
54202;DHT22;40108;53.152;5.844;2022-09-09T12:59:37;19.40;78.80
54202;DHT22;40108;53.152;5.844;2022-09-09T13:02:26;19.40;79.70
54202;DHT22;40108;53.152;5.844;2022-09-09T13:04:52;19.50;79.30
54202;DHT22;40108;53.152;5.844;2022-09-09T13:07:20;19.40;78.60
54202;DHT22;40108;53.152;5.844;2022-09-09T13:09:48;19.20;78.80
54202;DHT22;40108;53.152;5.844;2022-09-09T13:12:21;19.20;79.60
54202;DHT22;40108;53.152;5.844;2022-09-09T13:14:55;19.30;79.20
54202;DHT22;40108;53.152;5.844;2022-09-09T13:17:24;19.30;79.20
54202;DHT22;40108;53.152;5.844;2022-09-09T13:19:52;19.30;77.40
54202;DHT22;40108;53.152;5.844;2022-09-09T13:22:38;19.40;77.10
54202;DHT22;40108;53.152;5.844;2022-09-09T13:25:20;19.40;76.90
54202;DHT22;40108;53.152;5.844;2022-09-09T13:28:02;19.50;76.30
54202;DHT22;40108;53.152;5.844;2022-09-09T13:30:36;19.50;76.10
54202;DHT22;40108;53.152;5.844;2022-09-09T13:35:35;19.30;77.30
54202;DHT22;40108;53.152;5.844;2022-09-09T13:38:16;19.10;79.20
54202;DHT22;40108;53.152;5.844;2022-09-09T13:41:11;18.80;83.40
54202;DHT22;40108;53.152;5.844;2022-09-09T13:43:47;18.00;85.40
54202;DHT22;40108;53.152;5.844;2022-09-09T13:46:40;17.60;87.80
54202;DHT22;40108;53.152;5.844;2022-09-09T13:54:12;17.40;90.00
54202;DHT22;40108;53.152;5.844;2022-09-09T13:56:39;17.60;89.80
54202;DHT22;40108;53.152;5.844;2022-09-09T13:59:08;17.90;88.60
54202;DHT22;40108;53.152;5.844;2022-09-09T14:01:35;18.10;89.00
54202;DHT22;40108;53.152;5.844;2022-09-09T14:04:00;18.30;86.90
54202;DHT22;40108;53.152;5.844;2022-09-09T14:06:26;18.50;86.60
54202;DHT22;40108;53.152;5.844;2022-09-09T14:08:53;18.60;86.70
54202;DHT22;40108;53.152;5.844;2022-09-09T14:11:20;18.70;85.20
54202;DHT22;40108;53.152;5.844;2022-09-09T14:13:47;18.80;85.20
54202;DHT22;40108;53.152;5.844;2022-09-09T14:16:16;18.70;84.30
54202;DHT22;40108;53.152;5.844;2022-09-09T14:18:41;18.70;84.10
54202;DHT22;40108;53.152;5.844;2022-09-09T14:21:07;18.70;84.30
54202;DHT22;40108;53.152;5.844;2022-09-09T14:23:34;18.80;84.40
54202;DHT22;40108;53.152;5.844;2022-09-09T14:26:00;18.80;83.40
54202;DHT22;40108;53.152;5.844;2022-09-09T14:28:25;18.70;83.50
54202;DHT22;40108;53.152;5.844;2022-09-09T14:30:51;18.80;84.20
54202;DHT22;40108;53.152;5.844;2022-09-09T14:33:16;18.80;83.80
54202;DHT22;40108;53.152;5.844;2022-09-09T14:35:43;18.80;83.20
54202;DHT22;40108;53.152;5.844;2022-09-09T14:38:09;18.80;82.80
54202;DHT22;40108;53.152;5.844;2022-09-09T14:40:36;18.60;82.60
54202;DHT22;40108;53.152;5.844;2022-09-09T14:43:03;18.70;81.60
54202;DHT22;40108;53.152;5.844;2022-09-09T14:45:28;18.70;81.70
54202;DHT22;40108;53.152;5.844;2022-09-09T14:47:54;18.70;82.10
54202;DHT22;40108;53.152;5.844;2022-09-09T14:50:22;18.70;82.50
54202;DHT22;40108;53.152;5.844;2022-09-09T14:52:48;18.60;81.40
54202;DHT22;40108;53.152;5.844;2022-09-09T14:55:14;18.60;81.60
54202;DHT22;40108;53.152;5.844;2022-09-09T14:57:41;18.50;82.10
54202;DHT22;40108;53.152;5.844;2022-09-09T15:00:08;18.40;83.00
54202;DHT22;40108;53.152;5.844;2022-09-09T15:02:34;18.30;84.00
54202;DHT22;40108;53.152;5.844;2022-09-09T15:05:00;18.10;84.50
54202;DHT22;40108;53.152;5.844;2022-09-09T15:07:27;17.90;86.80
54202;DHT22;40108;53.152;5.844;2022-09-09T15:09:54;17.60;89.20
54202;DHT22;40108;53.152;5.844;2022-09-09T15:12:20;17.10;91.40
54202;DHT22;40108;53.152;5.844;2022-09-09T15:14:46;16.60;92.80
54202;DHT22;40108;53.152;5.844;2022-09-09T15:17:12;16.30;93.80
54202;DHT22;40108;53.152;5.844;2022-09-09T15:19:38;16.10;94.50
54202;DHT22;40108;53.152;5.844;2022-09-09T15:22:04;16.10;95.00
54202;DHT22;40108;53.152;5.844;2022-09-09T15:24:34;16.00;95.40
54202;DHT22;40108;53.152;5.844;2022-09-09T15:27:00;15.90;95.30
54202;DHT22;40108;53.152;5.844;2022-09-09T15:29:26;15.90;95.60
54202;DHT22;40108;53.152;5.844;2022-09-09T15:31:53;15.90;95.80
54202;DHT22;40108;53.152;5.844;2022-09-09T15:34:20;15.80;95.90
54202;DHT22;40108;53.152;5.844;2022-09-09T15:36:46;15.80;95.90
54202;DHT22;40108;53.152;5.844;2022-09-09T15:39:14;15.80;96.00
54202;DHT22;40108;53.152;5.844;2022-09-09T15:41:45;15.90;96.20
54202;DHT22;40108;53.152;5.844;2022-09-09T15:44:12;15.80;96.10
54202;DHT22;40108;53.152;5.844;2022-09-09T15:46:48;15.90;96.20
54202;DHT22;40108;53.152;5.844;2022-09-09T15:51:46;15.90;96.10
54202;DHT22;40108;53.152;5.844;2022-09-09T15:54:17;16.00;96.10
54202;DHT22;40108;53.152;5.844;2022-09-09T15:56:44;16.00;96.10
54202;DHT22;40108;53.152;5.844;2022-09-09T15:59:11;16.10;96.20
54202;DHT22;40108;53.152;5.844;2022-09-09T16:01:37;16.10;96.20
54202;DHT22;40108;53.152;5.844;2022-09-09T16:04:05;16.20;96.10
54202;DHT22;40108;53.152;5.844;2022-09-09T16:06:31;16.20;96.00
54202;DHT22;40108;53.152;5.844;2022-09-09T16:08:58;16.30;95.90
54202;DHT22;40108;53.152;5.844;2022-09-09T16:11:37;16.30;95.90
54202;DHT22;40108;53.152;5.844;2022-09-09T16:14:04;16.30;95.80
54202;DHT22;40108;53.152;5.844;2022-09-09T16:16:30;16.30;95.70
54202;DHT22;40108;53.152;5.844;2022-09-09T16:19:02;16.40;95.70
54202;DHT22;40108;53.152;5.844;2022-09-09T16:21:40;16.40;95.60
54202;DHT22;40108;53.152;5.844;2022-09-09T16:24:09;16.40;95.60
54202;DHT22;40108;53.152;5.844;2022-09-09T16:26:36;16.40;95.50
54202;DHT22;40108;53.152;5.844;2022-09-09T16:29:03;16.40;95.50
54202;DHT22;40108;53.152;5.844;2022-09-09T16:31:30;16.40;95.50
54202;DHT22;40108;53.152;5.844;2022-09-09T16:33:57;16.40;95.50
54202;DHT22;40108;53.152;5.844;2022-09-09T16:36:28;16.40;95.50
54202;DHT22;40108;53.152;5.844;2022-09-09T16:39:01;16.40;95.40
54202;DHT22;40108;53.152;5.844;2022-09-09T16:41:28;16.40;95.50
54202;DHT22;40108;53.152;5.844;2022-09-09T16:43:59;16.50;95.50
54202;DHT22;40108;53.152;5.844;2022-09-09T16:46:26;16.50;95.50
54202;DHT22;40108;53.152;5.844;2022-09-09T16:48:53;16.60;95.50
54202;DHT22;40108;53.152;5.844;2022-09-09T16:51:26;16.60;95.40
54202;DHT22;40108;53.152;5.844;2022-09-09T16:53:53;16.60;95.40
54202;DHT22;40108;53.152;5.844;2022-09-09T16:56:22;16.60;95.40
54202;DHT22;40108;53.152;5.844;2022-09-09T16:58:55;16.70;95.30
54202;DHT22;40108;53.152;5.844;2022-09-09T17:01:22;16.80;95.10
54202;DHT22;40108;53.152;5.844;2022-09-09T17:04:01;16.80;94.90
54202;DHT22;40108;53.152;5.844;2022-09-09T17:06:29;16.80;94.70
54202;DHT22;40108;53.152;5.844;2022-09-09T17:08:56;16.90;94.60
54202;DHT22;40108;53.152;5.844;2022-09-09T17:11:22;16.90;94.50
54202;DHT22;40108;53.152;5.844;2022-09-09T17:13:49;16.90;94.40
54202;DHT22;40108;53.152;5.844;2022-09-09T17:16:17;16.80;94.20
54202;DHT22;40108;53.152;5.844;2022-09-09T17:18:43;16.70;94.10
54202;DHT22;40108;53.152;5.844;2022-09-09T17:21:12;16.60;94.00
54202;DHT22;40108;53.152;5.844;2022-09-09T17:23:40;16.60;94.00
54202;DHT22;40108;53.152;5.844;2022-09-09T17:26:08;16.50;94.00
54202;DHT22;40108;53.152;5.844;2022-09-09T17:28:36;16.40;94.10
54202;DHT22;40108;53.152;5.844;2022-09-09T17:31:05;16.50;94.30
54202;DHT22;40108;53.152;5.844;2022-09-09T17:33:33;16.40;94.40
54202;DHT22;40108;53.152;5.844;2022-09-09T17:36:02;16.40;94.50
54202;DHT22;40108;53.152;5.844;2022-09-09T17:38:29;16.40;94.60
54202;DHT22;40108;53.152;5.844;2022-09-09T17:41:07;16.40;94.70
54202;DHT22;40108;53.152;5.844;2022-09-09T17:43:33;16.50;94.70
54202;DHT22;40108;53.152;5.844;2022-09-09T17:46:10;16.50;94.60
54202;DHT22;40108;53.152;5.844;2022-09-09T17:48:36;16.50;94.70
54202;DHT22;40108;53.152;5.844;2022-09-09T17:51:07;16.50;94.60
54202;DHT22;40108;53.152;5.844;2022-09-09T17:53:37;16.50;94.50
54202;DHT22;40108;53.152;5.844;2022-09-09T17:56:05;16.50;94.50
54202;DHT22;40108;53.152;5.844;2022-09-09T17:58:32;16.50;94.50
54202;DHT22;40108;53.152;5.844;2022-09-09T18:01:19;16.50;94.50
54202;DHT22;40108;53.152;5.844;2022-09-09T18:03:46;16.50;94.50
54202;DHT22;40108;53.152;5.844;2022-09-09T18:06:20;16.40;94.50
54202;DHT22;40108;53.152;5.844;2022-09-09T18:08:52;16.40;94.30
54202;DHT22;40108;53.152;5.844;2022-09-09T18:11:21;16.30;94.20
54202;DHT22;40108;53.152;5.844;2022-09-09T18:13:54;16.30;94.10
54202;DHT22;40108;53.152;5.844;2022-09-09T18:16:21;16.20;94.10
54202;DHT22;40108;53.152;5.844;2022-09-09T18:18:49;16.10;94.00
54202;DHT22;40108;53.152;5.844;2022-09-09T18:21:15;16.10;94.00
54202;DHT22;40108;53.152;5.844;2022-09-09T18:23:44;16.10;94.10